Time;durP1;ratioP1;P1;durP2;ratioP2;P2;SDS_P1;SDS_P2;PMS_P1;PMS_P2;Temp;Humidity;BMP_temperature;BMP_pressure;BME280_temperature;BME280_humidity;BME280_pressure;Samples;Min_cycle;Max_cycle;Signal;HPM_P1;HPM_P2
2022/04/20 00:00:58;;;;;;;5.18;2.90;;;9.40;72.80;;;;;;10280821;28;20033;-86
2022/04/20 00:05:58;;;;;;;5.50;2.95;;;9.30;72.80;;;;;;10269277;28;20415;-86
2022/04/20 00:11:00;;;;;;;5.13;2.65;;;9.80;73.10;;;;;;10267592;28;20503;-85
2022/04/20 00:16:01;;;;;;;6.50;3.50;;;9.20;72.80;;;;;;10267147;28;20038;-86
2022/04/20 00:21:01;;;;;;;7.53;3.63;;;9.10;72.70;;;;;;10300844;28;20552;-86
2022/04/20 00:26:02;;;;;;;4.53;2.80;;;10.10;73.30;;;;;;10311503;28;20047;-86
2022/04/20 00:31:08;;;;;;;4.70;2.95;;;8.90;73.30;;;;;;10283876;28;20532;-86
2022/04/20 00:36:09;;;;;;;6.25;3.10;;;8.90;72.70;;;;;;10284297;28;20509;-86
2022/04/20 00:41:12;;;;;;;5.65;2.80;;;8.80;72.70;;;;;;10290969;28;20037;-86
2022/04/20 00:46:14;;;;;;;4.47;2.53;;;9.50;73.10;;;;;;10288512;28;20074;-86
2022/04/20 00:51:15;;;;;;;5.70;2.85;;;8.70;72.70;;;;;;10282865;28;20683;-86
2022/04/20 00:56:15;;;;;;;7.38;3.30;;;8.60;72.70;;;;;;10278987;28;20057;-86
2022/04/20 01:01:16;;;;;;;5.40;2.92;;;8.60;72.90;;;;;;10305367;28;20054;-86
2022/04/20 01:06:17;;;;;;;7.35;2.85;;;8.50;72.90;;;;;;10301373;28;20046;-86
2022/04/20 01:11:18;;;;;;;6.65;3.10;;;8.80;73.20;;;;;;10276656;28;20397;-86
2022/04/20 01:16:18;;;;;;;3.90;2.28;;;9.30;73.60;;;;;;10305074;28;20047;-86
2022/04/20 01:21:19;;;;;;;5.80;3.22;;;8.60;73.30;;;;;;10303597;28;20042;-86
2022/04/20 01:26:20;;;;;;;4.82;2.78;;;8.20;73.20;;;;;;10276403;28;20070;-85
2022/04/20 01:31:21;;;;;;;5.63;3.45;;;8.10;73.40;;;;;;10289665;28;20050;-86
2022/04/20 01:36:22;;;;;;;8.75;3.13;;;8.00;73.60;;;;;;10278615;28;20032;-86
2022/04/20 01:41:22;;;;;;;5.93;2.72;;;8.00;73.60;;;;;;10303044;28;20040;-86
2022/04/20 01:46:23;;;;;;;11.52;3.55;;;8.00;73.80;;;;;;10252235;28;20057;-85
2022/04/20 01:56:43;;;;;;;;;;;7.80;74.00;;;;;;10321256;28;20061;-86
2022/04/20 02:07:04;;;;;;;6.32;2.85;;;7.70;74.40;;;;;;10295028;28;20583;-86
2022/04/20 02:12:05;;;;;;;5.72;3.08;;;7.70;74.30;;;;;;10255839;28;20034;-86
2022/04/20 02:17:06;;;;;;;7.30;3.15;;;7.60;75.10;;;;;;10262464;28;20043;-86
2022/04/20 02:22:06;;;;;;;8.45;3.33;;;7.60;74.70;;;;;;10294926;28;20042;-86
2022/04/20 02:27:11;;;;;;;8.55;3.38;;;7.50;75.00;;;;;;10257044;28;20062;-86
2022/04/20 02:32:11;;;;;;;9.15;3.85;;;7.60;75.20;;;;;;10291504;28;20070;-86
2022/04/20 02:37:12;;;;;;;6.00;2.70;;;7.40;75.40;;;;;;10292737;28;20219;-86
2022/04/20 02:42:13;;;;;;;6.05;2.85;;;8.50;76.20;;;;;;10301516;28;20117;-86
2022/04/20 02:47:16;;;;;;;5.18;3.35;;;7.30;75.70;;;;;;10288987;28;20048;-86
2022/04/20 02:52:16;;;;;;;8.05;3.67;;;7.50;76.10;;;;;;10261610;28;20074;-86
2022/04/20 02:57:18;;;;;;;6.05;3.10;;;8.00;76.50;;;;;;10283039;28;20137;-86
2022/04/20 03:02:21;;;;;;;6.63;3.53;;;7.20;77.00;;;;;;10292532;28;20382;-85
2022/04/20 03:07:22;;;;;;;6.35;2.92;;;7.10;76.60;;;;;;10300154;28;20153;-86
2022/04/20 03:12:23;;;;;;;6.50;3.30;;;8.00;77.40;;;;;;10261151;28;20046;-86
2022/04/20 03:17:24;;;;;;;8.40;3.40;;;7.00;77.80;;;;;;10282441;28;20432;-86
2022/04/20 03:22:25;;;;;;;7.05;3.35;;;7.60;77.80;;;;;;10291142;28;20472;-85
2022/04/20 03:27:26;;;;;;;5.28;3.00;;;7.00;77.80;;;;;;10286723;28;20161;-87
2022/04/20 03:32:27;;;;;;;7.72;3.40;;;6.90;78.00;;;;;;10270709;28;20355;-86
2022/04/20 03:37:27;;;;;;;8.13;3.38;;;6.80;78.20;;;;;;10289735;28;20141;-86
2022/04/20 03:42:28;;;;;;;6.55;3.53;;;6.80;78.50;;;;;;10292215;28;20170;-85
2022/04/20 03:47:29;;;;;;;6.43;3.30;;;7.80;79.40;;;;;;10276535;28;20056;-86
2022/04/20 03:52:30;;;;;;;6.53;3.60;;;6.90;79.20;;;;;;10301651;28;20045;-85
2022/04/20 03:57:30;;;;;;;10.45;3.83;;;7.60;79.80;;;;;;10307817;28;20046;-84
2022/04/20 04:02:31;;;;;;;8.82;3.65;;;7.70;80.20;;;;;;10331623;28;20741;-85
2022/04/20 04:07:32;;;;;;;5.95;3.47;;;6.60;79.80;;;;;;10281702;28;20046;-85
2022/04/20 04:12:33;;;;;;;7.43;3.78;;;7.20;80.30;;;;;;10294974;28;20089;-85
2022/04/20 04:17:34;;;;;;;5.05;3.00;;;7.50;80.70;;;;;;10284009;28;20035;-85
2022/04/20 04:22:38;;;;;;;5.95;3.20;;;7.20;80.80;;;;;;10276817;28;20033;-86
2022/04/20 04:27:38;;;;;;;8.05;4.00;;;6.40;80.70;;;;;;10296629;28;20131;-87
2022/04/20 04:32:39;;;;;;;8.63;3.72;;;6.40;80.90;;;;;;10285049;28;20534;-86
2022/04/20 04:37:40;;;;;;;8.35;3.78;;;7.40;81.60;;;;;;10311714;28;20086;-86
2022/04/20 04:42:41;;;;;;;6.63;3.50;;;6.40;81.20;;;;;;10277819;28;20035;-86
2022/04/20 04:53:02;;;;;;;7.07;3.42;;;6.40;81.80;;;;;;10283559;28;20121;-86
2022/04/20 04:58:03;;;;;;;7.47;3.67;;;6.30;82.00;;;;;;10295915;28;20041;-85
2022/04/20 05:03:03;;;;;;;6.57;3.75;;;6.30;82.10;;;;;;10271626;28;20717;-86
2022/04/20 05:08:05;;;;;;;7.70;3.80;;;6.20;82.40;;;;;;10302473;28;20034;-86
2022/04/20 05:13:07;;;;;;;8.63;4.50;;;6.30;82.60;;;;;;10289255;28;20045;-86
2022/04/20 05:18:07;;;;;;;7.28;3.97;;;6.30;82.80;;;;;;10292134;28;20473;-86
2022/04/20 05:23:08;;;;;;;7.05;3.80;;;6.30;82.90;;;;;;10305303;28;20043;-86
2022/04/20 05:28:09;;;;;;;9.15;3.88;;;7.50;83.70;;;;;;10260510;28;20046;-86
2022/04/20 05:33:11;;;;;;;8.80;4.03;;;6.40;83.40;;;;;;10290690;28;20039;-85
2022/04/20 05:43:31;;;;;;;9.18;4.18;;;6.50;83.30;;;;;;10273115;28;20078;-86
2022/04/20 05:48:33;;;;;;;9.25;4.55;;;7.10;83.60;;;;;;10277444;28;20131;-85
2022/04/20 05:53:34;;;;;;;11.65;4.43;;;6.70;83.50;;;;;;10263756;28;20101;-86
2022/04/20 05:58:34;;;;;;;7.68;4.00;;;6.80;83.60;;;;;;10295984;28;20030;-86
2022/04/20 06:03:35;;;;;;;7.40;4.03;;;7.00;83.60;;;;;;10263771;28;20049;-86
2022/04/20 06:08:36;;;;;;;8.55;3.53;;;7.70;83.90;;;;;;10309307;28;20042;-85
2022/04/20 06:13:39;;;;;;;8.18;3.85;;;7.50;83.70;;;;;;10268378;28;20038;-86
2022/04/20 06:18:40;;;;;;;7.75;3.97;;;7.40;83.50;;;;;;10262832;28;20030;-85
2022/04/20 06:23:41;;;;;;;8.65;4.22;;;7.50;83.40;;;;;;10293376;28;20469;-86
2022/04/20 06:28:42;;;;;;;8.18;3.70;;;7.80;83.20;;;;;;10318012;28;20038;-86
2022/04/20 06:33:42;;;;;;;5.75;3.83;;;8.00;83.00;;;;;;10290257;28;20043;-86
2022/04/20 06:38:43;;;;;;;7.50;3.47;;;8.20;82.70;;;;;;10285542;28;20043;-86
2022/04/20 06:43:44;;;;;;;9.45;3.90;;;8.50;82.40;;;;;;10302546;28;20126;-85
2022/04/20 06:48:44;;;;;;;6.03;3.38;;;8.70;81.80;;;;;;10287259;28;20045;-87
2022/04/20 06:59:07;;;;;;;7.07;3.60;;;9.30;81.30;;;;;;10315104;28;20528;-86
2022/04/20 07:04:08;;;;;;;5.93;3.42;;;9.50;80.80;;;;;;10280763;28;20042;-86
2022/04/20 07:09:09;;;;;;;6.63;3.85;;;9.70;80.20;;;;;;10317514;28;20041;-86
2022/04/20 07:14:09;;;;;;;5.25;2.92;;;9.90;79.70;;;;;;10301287;28;20052;-86
2022/04/20 07:19:10;;;;;;;6.47;3.25;;;10.00;79.60;;;;;;10300438;28;20042;-86
2022/04/20 07:24:24;;;;;;;6.03;3.10;;;10.40;79.30;;;;;;10278316;28;20427;-86
2022/04/20 07:29:25;;;;;;;4.57;2.88;;;10.30;78.80;;;;;;10280387;28;20054;-86
2022/04/20 07:34:25;;;;;;;5.43;3.13;;;10.50;78.40;;;;;;10279445;28;20517;-87
2022/04/20 07:39:26;;;;;;;6.30;3.13;;;10.60;78.00;;;;;;10276704;28;20031;-86
2022/04/20 07:44:27;;;;;;;5.50;3.25;;;10.80;77.40;;;;;;10274303;28;20461;-86
2022/04/20 07:54:47;;;;;;;3.70;2.78;;;11.10;76.80;;;;;;10278732;28;20043;-86
2022/04/20 07:59:51;;;;;;;4.80;2.75;;;11.30;76.40;;;;;;10294556;28;20043;-87
2022/04/20 08:05:01;;;;;;;4.28;2.40;;;11.40;76.10;;;;;;10287541;28;20043;-86
2022/04/20 08:10:09;;;;;;;4.93;2.38;;;11.60;75.60;;;;;;10303211;28;20038;-86
2022/04/20 08:15:10;;;;;;;4.65;2.47;;;11.80;75.00;;;;;;10324567;28;20073;-87
2022/04/20 08:20:11;;;;;;;3.08;1.88;;;12.00;74.10;;;;;;10306584;28;20073;-87
2022/04/20 08:25:14;;;;;;;2.78;1.73;;;12.10;73.30;;;;;;10288765;28;20905;-86
2022/04/20 08:30:14;;;;;;;3.13;1.95;;;12.30;72.60;;;;;;10286422;28;20064;-86
2022/04/20 08:35:15;;;;;;;3.42;1.98;;;12.40;71.60;;;;;;10273412;28;20117;-86
2022/04/20 08:40:16;;;;;;;3.63;2.22;;;12.60;71.10;;;;;;10289851;28;20030;-86
2022/04/20 08:45:17;;;;;;;2.50;1.75;;;12.80;70.20;;;;;;10261277;28;20070;-86
2022/04/20 08:50:18;;;;;;;4.47;2.20;;;13.00;69.80;;;;;;10296513;28;20041;-86
2022/04/20 08:55:24;;;;;;;4.70;2.08;;;13.30;69.50;;;;;;10284775;28;20062;-87
2022/04/20 09:00:28;;;;;;;4.03;1.88;;;13.50;68.90;;;;;;10284242;28;20485;-86
2022/04/20 09:05:33;;;;;;;3.75;2.00;;;13.80;68.40;;;;;;10286487;28;20068;-85
2022/04/20 09:10:36;;;;;;;3.83;2.10;;;14.00;67.60;;;;;;10310907;28;20125;-86
2022/04/20 09:15:38;;;;;;;2.92;1.98;;;14.30;67.00;;;;;;10282298;28;20097;-86
2022/04/20 09:20:41;;;;;;;4.43;2.13;;;14.50;66.10;;;;;;10268970;28;20037;-86
2022/04/20 09:25:51;;;;;;;3.78;2.03;;;14.70;65.40;;;;;;10277921;28;20594;-86
2022/04/20 09:30:54;;;;;;;4.10;1.75;;;15.00;64.70;;;;;;10285580;28;20455;-86
2022/04/20 09:36:09;;;;;;;4.63;1.98;;;15.30;65.00;;;;;;10299730;28;20105;-87
2022/04/20 09:41:16;;;;;;;4.53;1.85;;;15.40;62.80;;;;;;10300372;28;20258;-87
2022/04/20 09:51:40;;;;;;;3.00;1.85;;;16.30;62.80;;;;;;10312229;28;20120;-88
2022/04/20 09:56:44;;;;;;;1.98;1.33;;;16.70;62.30;;;;;;10300833;28;20089;-86
2022/04/20 10:01:53;;;;;;;2.58;1.52;;;17.10;61.20;;;;;;10288387;28;20034;-87
2022/04/20 10:06:54;;;;;;;2.85;1.33;;;17.30;60.50;;;;;;10247563;28;20133;-87
2022/04/20 10:11:54;;;;;;;2.67;1.90;;;17.60;59.80;;;;;;10301962;28;20053;-87
2022/04/20 10:17:03;;;;;;;2.03;1.42;;;17.90;59.30;;;;;;10301464;28;20042;-86
2022/04/20 10:22:05;;;;;;;2.70;1.65;;;18.30;58.50;;;;;;10301439;28;20444;-87
2022/04/20 10:27:13;;;;;;;2.88;1.67;;;18.60;58.20;;;;;;10294905;28;20951;-85
2022/04/20 10:32:25;;;;;;;3.13;1.52;;;18.90;57.50;;;;;;10279478;28;20057;-87
2022/04/20 10:37:28;;;;;;;3.22;1.73;;;19.10;55.70;;;;;;10248649;28;20042;-88
2022/04/20 10:42:32;;;;;;;2.33;1.60;;;19.50;56.00;;;;;;10220068;28;20035;-87
2022/04/20 10:47:42;;;;;;;3.20;1.80;;;19.90;55.30;;;;;;10264266;28;20050;-88
2022/04/20 10:52:58;;;;;;;3.92;2.30;;;20.20;54.60;;;;;;10228700;28;20031;-90
2022/04/20 10:58:21;;;;;;;3.17;1.90;;;20.80;53.40;;;;;;10242997;28;20074;-89
2022/04/20 11:03:27;;;;;;;2.28;1.95;;;21.40;51.30;;;;;;10244862;28;20043;-90
2022/04/20 11:08:28;;;;;;;3.00;1.73;;;21.80;52.40;;;;;;10232823;28;20053;-88
2022/04/20 11:19:12;;;;;;;3.03;1.90;;;23.00;51.70;;;;;;10222530;28;20043;-90
2022/04/20 11:24:25;;;;;;;2.20;1.92;;;23.40;50.70;;;;;;10240573;28;20049;-90
2022/04/20 11:29:28;;;;;;;6.78;2.00;;;24.00;50.30;;;;;;10269427;28;20077;-89
2022/04/20 11:34:34;;;;;;;3.70;1.70;;;24.30;49.80;;;;;;10272929;28;20130;-88
2022/04/20 11:39:36;;;;;;;3.33;2.17;;;24.70;48.90;;;;;;10278485;28;20752;-88
2022/04/20 11:44:45;;;;;;;4.00;2.15;;;24.80;48.60;;;;;;10292077;28;20050;-88
2022/04/20 11:49:49;;;;;;;2.72;2.00;;;24.90;48.20;;;;;;10284173;28;20516;-89
2022/04/20 11:54:50;;;;;;;3.55;2.00;;;24.90;48.50;;;;;;10305113;28;20049;-90
2022/04/20 11:59:51;;;;;;;4.65;2.05;;;25.00;48.50;;;;;;10267615;28;20501;-90
2022/04/20 12:05:05;;;;;;;2.90;1.90;;;25.50;48.10;;;;;;10305590;28;20058;-91
2022/04/20 12:10:07;;;;;;;2.75;2.05;;;25.80;46.50;;;;;;10293454;28;20035;-91
2022/04/20 12:15:12;;;;;;;3.15;2.00;;;26.10;47.00;;;;;;10299431;28;20850;-92
2022/04/20 12:20:14;;;;;;;3.08;1.80;;;26.50;46.60;;;;;;10321680;28;20037;-91
2022/04/20 12:25:19;;;;;;;2.80;2.35;;;26.60;46.60;;;;;;10297398;28;20069;-89
2022/04/20 12:30:59;;;;;;;5.13;2.75;;;26.80;45.80;;;;;;10267944;28;20444;-89
2022/04/20 12:36:11;;;;;;;3.40;2.38;;;26.90;44.10;;;;;;10299994;28;20093;-87
2022/04/20 12:41:34;;;;;;;3.13;1.92;;;26.80;45.00;;;;;;10320438;28;20062;-89
2022/04/20 12:46:35;;;;;;;2.22;1.95;;;26.90;43.50;;;;;;10313040;28;20057;-89
2022/04/20 12:51:36;;;;;;;3.25;1.92;;;26.60;44.70;;;;;;10280759;28;20409;-89
2022/04/20 13:02:04;;;;;;;3.13;2.00;;;26.60;44.20;;;;;;10310625;28;20041;-89
2022/04/20 13:07:05;;;;;;;3.25;1.63;;;26.60;44.10;;;;;;10298597;28;20047;-89
2022/04/20 13:12:06;;;;;;;1.95;1.55;;;27.00;43.70;;;;;;10280280;28;20524;-91
2022/04/20 13:17:09;;;;;;;2.22;1.67;;;27.30;43.50;;;;;;10305638;28;20053;-89
2022/04/20 13:22:10;;;;;;;1.92;1.35;;;27.50;43.00;;;;;;10314393;28;20070;-89
2022/04/20 13:32:31;;;;;;;1.63;1.48;;;27.50;42.40;;;;;;10322594;28;20077;-90
2022/04/20 13:37:34;;;;;;;3.03;1.50;;;27.30;42.30;;;;;;10271227;28;20041;-90
2022/04/20 13:42:35;;;;;;;3.22;2.10;;;27.00;41.70;;;;;;10262317;28;20042;-89
2022/04/20 13:47:59;;;;;;;4.03;1.70;;;26.80;42.00;;;;;;10266077;28;20052;-90
2022/04/20 13:53:00;;;;;;;5.18;2.60;;;26.80;41.50;;;;;;10293531;28;20065;-88
2022/04/20 13:58:01;;;;;;;2.10;1.60;;;26.70;41.30;;;;;;10285501;28;20100;-88
2022/04/20 14:03:03;;;;;;;3.25;1.85;;;26.40;41.50;;;;;;10270935;28;20093;-89
2022/04/20 14:08:04;;;;;;;2.75;1.70;;;26.40;41.40;;;;;;10283301;28;20626;-89
2022/04/20 14:13:06;;;;;;;2.63;1.85;;;26.50;41.40;;;;;;10265785;28;20521;-89
2022/04/20 14:18:07;;;;;;;2.35;1.90;;;26.50;41.10;;;;;;10300411;28;20034;-88
2022/04/20 14:23:10;;;;;;;3.13;2.55;;;26.50;41.30;;;;;;10297902;28;20046;-87
2022/04/20 14:33:31;;;;;;;3.70;2.58;;;25.70;41.30;;;;;;10289654;28;20050;-88
2022/04/20 14:38:33;;;;;;;3.95;2.38;;;25.00;41.90;;;;;;10272479;28;20057;-88
2022/04/20 14:43:34;;;;;;;5.85;2.75;;;24.30;42.20;;;;;;10280961;28;20039;-88
2022/04/20 14:48:35;;;;;;;3.30;2.33;;;23.90;42.50;;;;;;10299547;28;20051;-87
2022/04/20 14:53:37;;;;;;;4.47;2.50;;;23.50;42.90;;;;;;10268422;28;20043;-89
2022/04/20 14:58:38;;;;;;;3.42;2.47;;;22.90;43.30;;;;;;10315319;28;20532;-88
2022/04/20 15:03:39;;;;;;;3.55;2.70;;;22.30;44.10;;;;;;10293330;28;20125;-87
2022/04/20 15:08:40;;;;;;;3.33;2.95;;;21.70;44.60;;;;;;10297984;28;20129;-88
2022/04/20 15:13:41;;;;;;;4.68;2.85;;;21.30;45.20;;;;;;10285919;28;20031;-86
2022/04/20 15:18:41;;;;;;;4.53;2.72;;;20.90;45.70;;;;;;10307491;28;20046;-87
2022/04/20 15:23:43;;;;;;;3.97;2.95;;;20.70;45.70;;;;;;10281600;28;20452;-87
2022/04/20 15:28:43;;;;;;;3.65;2.60;;;20.40;46.70;;;;;;10315525;28;20054;-88
2022/04/20 15:33:45;;;;;;;3.33;2.25;;;20.30;46.50;;;;;;10270915;28;20435;-87
2022/04/20 15:38:46;;;;;;;5.03;3.00;;;20.00;46.60;;;;;;10236527;28;20501;-86
2022/04/20 15:43:47;;;;;;;4.57;2.88;;;20.10;46.90;;;;;;10260773;28;20023;-87
2022/04/20 15:48:50;;;;;;;4.38;2.60;;;19.60;46.90;;;;;;10248778;28;20528;-87
2022/04/20 15:53:53;;;;;;;4.50;2.60;;;19.40;47.30;;;;;;10248208;28;20516;-88
2022/04/20 16:04:13;;;;;;;8.00;2.58;;;19.20;47.70;;;;;;10231263;28;20042;-87
2022/04/20 16:09:13;;;;;;;5.55;3.05;;;19.10;47.80;;;;;;10256637;28;20047;-88
2022/04/20 16:14:14;;;;;;;3.05;2.33;;;19.00;47.90;;;;;;10260498;28;20718;-86
2022/04/20 16:19:15;;;;;;;8.18;3.15;;;18.90;48.00;;;;;;10207178;28;20035;-89
2022/04/20 16:24:16;;;;;;;5.05;2.70;;;18.70;48.00;;;;;;10257241;28;20062;-87
2022/04/20 16:29:19;;;;;;;4.80;2.78;;;18.50;48.30;;;;;;10250467;28;20085;-86
2022/04/20 16:34:20;;;;;;;5.78;2.90;;;18.50;48.50;;;;;;10287929;28;20050;-87
2022/04/20 16:39:24;;;;;;;5.50;2.72;;;18.30;48.60;;;;;;10253510;28;20027;-88
2022/04/20 16:44:25;;;;;;;4.72;2.47;;;18.30;48.90;;;;;;10293531;28;20096;-88
2022/04/20 16:49:25;;;;;;;5.22;3.00;;;18.20;49.10;;;;;;10307821;28;20039;-87
2022/04/20 16:54:26;;;;;;;5.00;2.70;;;18.10;49.20;;;;;;10270016;28;20469;-87
2022/04/20 16:59:27;;;;;;;5.43;2.30;;;18.00;49.40;;;;;;10284407;28;20572;-87
2022/04/20 17:04:31;;;;;;;5.28;2.47;;;17.90;49.70;;;;;;10320593;28;20054;-87
2022/04/20 17:09:32;;;;;;;4.45;2.85;;;17.80;50.00;;;;;;10279576;28;20578;-86
2022/04/20 17:14:33;;;;;;;5.55;2.58;;;17.70;50.10;;;;;;10281632;28;20031;-87
2022/04/20 17:19:35;;;;;;;5.43;2.47;;;17.60;50.40;;;;;;10280090;28;20034;-87
2022/04/20 17:29:55;;;;;;;5.38;2.80;;;17.60;50.90;;;;;;10296327;28;20074;-86
2022/04/20 17:40:16;;;;;;;5.05;3.20;;;17.00;51.40;;;;;;10304545;28;20031;-88
2022/04/20 17:45:20;;;;;;;4.40;2.65;;;17.30;52.00;;;;;;10261629;28;20047;-87
2022/04/20 17:50:21;;;;;;;7.93;2.80;;;17.20;52.30;;;;;;10291166;28;20608;-87
2022/04/20 17:55:22;;;;;;;4.32;2.60;;;17.10;52.60;;;;;;10271684;28;20034;-86
2022/04/20 18:00:23;;;;;;;3.97;2.53;;;16.90;52.90;;;;;;10291891;28;20540;-84
2022/04/20 18:05:26;;;;;;;6.80;2.88;;;16.80;53.30;;;;;;10294357;28;20061;-87
2022/04/20 18:10:27;;;;;;;4.53;2.90;;;16.70;53.60;;;;;;10293348;28;20030;-86
2022/04/20 18:15:28;;;;;;;5.80;3.45;;;16.50;53.90;;;;;;10276490;28;20038;-87
2022/04/20 18:20:29;;;;;;;4.97;2.90;;;16.40;54.30;;;;;;10275953;28;20737;-88
2022/04/20 18:25:29;;;;;;;6.53;3.50;;;16.30;54.70;;;;;;10298833;28;20133;-86
2022/04/20 18:30:45;;;;;;;5.60;3.83;;;16.10;54.90;;;;;;10282075;28;20121;-84
2022/04/20 18:35:47;;;;;;;6.72;3.45;;;15.90;55.30;;;;;;10278361;28;20042;-88
2022/04/20 18:40:51;;;;;;;6.72;4.13;;;15.80;55.80;;;;;;10279906;28;20112;-86
2022/04/20 18:45:54;;;;;;;6.75;3.85;;;15.70;56.20;;;;;;10279696;28;20522;-88
2022/04/20 18:50:57;;;;;;;9.88;4.10;;;15.60;56.50;;;;;;10299387;28;20043;-87
2022/04/20 19:01:31;;;;;;;5.72;3.92;;;15.40;57.10;;;;;;10294965;28;20112;-86
2022/04/20 19:06:32;;;;;;;5.95;3.80;;;15.20;57.40;;;;;;10283665;28;20074;-87
2022/04/20 19:11:33;;;;;;;10.23;4.32;;;15.10;57.90;;;;;;10280424;28;20038;-86
2022/04/20 19:16:34;;;;;;;7.28;4.65;;;14.90;58.50;;;;;;10305662;28;20525;-86
2022/04/20 19:21:36;;;;;;;6.13;4.20;;;14.80;58.90;;;;;;10290868;28;20039;-87
2022/04/20 19:26:37;;;;;;;7.00;4.30;;;14.60;59.40;;;;;;10307335;28;20098;-87
2022/04/20 19:31:38;;;;;;;7.85;4.30;;;14.50;59.70;;;;;;10288992;28;20047;-87
2022/04/20 19:36:42;;;;;;;8.38;4.80;;;14.40;60.10;;;;;;10265658;28;20042;-87
2022/04/20 19:41:44;;;;;;;9.48;5.32;;;14.30;60.30;;;;;;10276270;28;20035;-87
2022/04/20 19:46:46;;;;;;;9.60;5.18;;;14.20;60.80;;;;;;10273762;28;20106;-86
2022/04/20 19:51:46;;;;;;;8.05;5.53;;;14.00;61.30;;;;;;10293161;28;20088;-88
2022/04/20 19:56:50;;;;;;;11.93;5.50;;;13.90;61.70;;;;;;10280162;28;20042;-87
2022/04/20 20:01:54;;;;;;;10.40;5.38;;;13.80;62.20;;;;;;10298193;28;20038;-87
2022/04/20 20:07:03;;;;;;;10.57;5.35;;;13.60;62.50;;;;;;10310955;28;20042;-87
2022/04/20 20:12:19;;;;;;;9.27;4.80;;;13.20;62.80;;;;;;10281693;28;20093;-87
2022/04/20 20:17:22;;;;;;;10.88;5.35;;;13.30;63.20;;;;;;10284119;28;20504;-87
2022/04/20 20:22:23;;;;;;;7.45;5.13;;;13.20;63.40;;;;;;10303686;28;20494;-87
2022/04/20 20:32:46;;;;;;;12.25;5.35;;;13.00;63.80;;;;;;10271846;28;20056;-87
2022/04/20 20:37:47;;;;;;;9.82;5.40;;;12.90;64.00;;;;;;10275271;28;20030;-87
2022/04/20 20:42:48;;;;;;;7.88;3.92;;;12.80;64.30;;;;;;10259936;28;20031;-87
2022/04/20 20:47:48;;;;;;;9.55;4.93;;;12.60;64.50;;;;;;10248776;28;20094;-87
2022/04/20 20:52:49;;;;;;;8.20;4.40;;;12.50;64.70;;;;;;10254505;28;20145;-86
2022/04/20 20:57:50;;;;;;;7.60;4.18;;;12.40;64.90;;;;;;10251215;28;20051;-87
2022/04/20 21:02:51;;;;;;;6.43;3.70;;;12.30;65.00;;;;;;10233245;28;20035;-88
2022/04/20 21:07:52;;;;;;;8.20;3.95;;;12.20;65.10;;;;;;10258172;28;20502;-87
2022/04/20 21:12:53;;;;;;;7.25;4.22;;;12.10;65.30;;;;;;10244923;28;20625;-86
2022/04/20 21:17:54;;;;;;;5.25;3.50;;;12.00;65.40;;;;;;10277629;28;20039;-88
2022/04/20 21:22:55;;;;;;;6.97;3.63;;;11.90;65.60;;;;;;10257277;28;20163;-86
2022/04/20 21:28:00;;;;;;;6.18;3.53;;;11.80;65.70;;;;;;10262661;28;20139;-86
2022/04/20 21:33:02;;;;;;;6.63;3.55;;;12.60;66.30;;;;;;10267307;28;20052;-87
2022/04/20 21:38:06;;;;;;;5.78;3.15;;;11.60;66.10;;;;;;10259042;28;20047;-86
2022/04/20 21:43:07;;;;;;;8.25;3.38;;;12.10;66.40;;;;;;10266880;28;20066;-88
2022/04/20 21:48:09;;;;;;;6.45;3.55;;;11.40;66.20;;;;;;10248258;28;20510;-87
2022/04/20 21:53:10;;;;;;;5.90;2.92;;;11.30;66.20;;;;;;10254395;28;20640;-88
2022/04/20 21:58:11;;;;;;;5.43;2.90;;;11.30;66.40;;;;;;10281198;28;20054;-88
2022/04/20 22:08:59;;;;;;;6.25;3.15;;;11.10;66.90;;;;;;10255815;28;20043;-90
2022/04/20 22:14:00;;;;;;;6.22;3.20;;;11.00;66.80;;;;;;10256873;28;20042;-90
2022/04/20 22:19:01;;;;;;;7.57;3.58;;;10.90;66.90;;;;;;10258076;28;20050;-86
2022/04/20 22:24:02;;;;;;;5.82;3.17;;;10.80;67.10;;;;;;10234264;28;20039;-87
2022/04/20 22:29:04;;;;;;;8.50;3.67;;;10.80;67.20;;;;;;10250324;28;20047;-86
2022/04/20 22:34:05;;;;;;;5.85;3.10;;;;;;;;;;10277281;28;20047;-87
2022/04/20 22:39:07;;;;;;;4.78;2.92;;;10.60;67.00;;;;;;10317733;28;20584;-88
2022/04/20 22:44:09;;;;;;;5.95;3.10;;;10.50;67.70;;;;;;10299868;28;20051;-87
2022/04/20 22:49:10;;;;;;;5.53;2.95;;;10.50;67.90;;;;;;10276496;28;20461;-87
2022/04/20 22:54:12;;;;;;;7.50;3.67;;;10.40;68.00;;;;;;10281638;28;20163;-86
2022/04/20 22:59:12;;;;;;;6.75;3.22;;;10.30;68.10;;;;;;10279802;28;20038;-88
2022/04/20 23:04:13;;;;;;;7.28;3.47;;;10.10;68.70;;;;;;10264637;28;20093;-88
2022/04/20 23:09:14;;;;;;;7.07;3.78;;;10.20;68.40;;;;;;10273706;28;20102;-87
2022/04/20 23:14:14;;;;;;;5.50;3.03;;;10.10;68.50;;;;;;10264279;28;20035;-88
2022/04/20 23:19:15;;;;;;;4.82;3.03;;;10.00;68.70;;;;;;10245703;28;20034;-87
